createdAt,value
2018-03-30T00:00:53.007Z,7.9
2018-03-30T00:01:55.744Z,7.9
2018-03-30T00:02:58.163Z,7.9
2018-03-30T00:04:00.589Z,7.9
2018-03-30T00:05:03.011Z,7.9
2018-03-30T00:06:05.443Z,7.9
2018-03-30T00:07:07.862Z,7.9
2018-03-30T00:08:10.286Z,7.9
2018-03-30T00:09:12.702Z,7.8
2018-03-30T00:10:15.132Z,7.9
2018-03-30T00:11:17.558Z,7.9
2018-03-30T00:12:19.988Z,7.9
2018-03-30T00:13:22.401Z,7.9
2018-03-30T00:14:25.110Z,7.9
2018-03-30T00:15:27.825Z,7.9
2018-03-30T00:16:30.253Z,7.9
2018-03-30T00:17:32.967Z,7.9
2018-03-30T00:18:35.394Z,8
2018-03-30T00:19:37.811Z,7.9
2018-03-30T00:20:40.245Z,7.9
2018-03-30T00:21:42.959Z,7.9
2018-03-30T00:22:45.390Z,7.9
2018-03-30T00:23:48.123Z,7.9
2018-03-30T00:24:50.554Z,7.9
2018-03-30T00:25:53.263Z,7.9
2018-03-30T00:26:55.695Z,7.9
2018-03-30T00:27:58.429Z,7.8
2018-03-30T00:29:01.106Z,7.8
2018-03-30T00:30:03.545Z,7.8
2018-03-30T00:31:05.969Z,7.8
2018-03-30T00:32:08.392Z,7.8
2018-03-30T00:33:10.823Z,7.8
2018-03-30T00:34:13.552Z,7.8
2018-03-30T00:35:15.974Z,7.8
2018-03-30T00:36:18.408Z,7.9
2018-03-30T00:37:20.815Z,7.9
2018-03-30T00:38:23.239Z,7.9
2018-03-30T00:39:25.950Z,8
2018-03-30T00:40:28.373Z,8
2018-03-30T00:41:30.800Z,8
2018-03-30T00:42:33.234Z,8
2018-03-30T00:43:35.654Z,8
2018-03-30T00:44:38.091Z,8
2018-03-30T00:45:40.516Z,7.9
2018-03-30T00:46:42.945Z,7.9
2018-03-30T00:47:45.374Z,7.9
2018-03-30T00:48:47.790Z,7.9
2018-03-30T00:49:50.217Z,7.9
2018-03-30T00:50:52.645Z,7.9
2018-03-30T00:51:55.350Z,7.8
2018-03-30T00:52:57.773Z,7.8
2018-03-30T00:54:00.493Z,7.8
2018-03-30T00:55:02.923Z,7.8
2018-03-30T00:56:05.629Z,7.8
2018-03-30T00:57:08.063Z,7.8
2018-03-30T00:58:10.489Z,7.8
2018-03-30T00:59:12.920Z,7.7
2018-03-30T01:00:15.341Z,7.7
2018-03-30T01:01:17.780Z,7.7
2018-03-30T01:02:20.207Z,7.7
2018-03-30T01:03:22.918Z,7.7
2018-03-30T01:04:25.342Z,7.7
2018-03-30T01:05:27.780Z,7.6
2018-03-30T01:06:30.508Z,7.6
2018-03-30T01:07:33.201Z,7.6
2018-03-30T01:08:35.616Z,7.6
2018-03-30T01:09:38.325Z,7.5
2018-03-30T01:10:40.766Z,7.5
2018-03-30T01:11:43.188Z,7.4
2018-03-30T01:12:45.603Z,7.4
2018-03-30T01:13:48.041Z,7.4
2018-03-30T01:14:50.457Z,7.3
2018-03-30T01:15:52.891Z,7.3
2018-03-30T01:16:55.316Z,7.3
2018-03-30T01:17:57.728Z,7.2
2018-03-30T01:19:00.150Z,7.3
2018-03-30T01:20:02.868Z,7.2
2018-03-30T01:21:05.578Z,7.3
2018-03-30T01:22:08.001Z,7.3
2018-03-30T01:23:10.422Z,7.3
2018-03-30T01:24:12.850Z,7.3
2018-03-30T01:25:15.288Z,7.3
2018-03-30T01:26:17.719Z,7.3
2018-03-30T01:27:20.136Z,7.3
2018-03-30T01:28:22.553Z,7.3
2018-03-30T01:29:24.990Z,7.3
2018-03-30T01:30:27.409Z,7.3
2018-03-30T01:31:29.836Z,7.3
2018-03-30T01:32:32.271Z,7.3
2018-03-30T01:33:34.691Z,7.3
2018-03-30T01:34:37.394Z,7.3
2018-03-30T01:35:39.826Z,7.3
2018-03-30T01:36:42.240Z,7.3
2018-03-30T01:37:44.671Z,7.3
2018-03-30T01:38:47.097Z,7.3
2018-03-30T01:39:49.521Z,7.3
2018-03-30T01:40:51.945Z,7.3
2018-03-30T01:41:54.667Z,7.3
2018-03-30T01:42:57.083Z,7.3
2018-03-30T01:43:59.518Z,7.3
2018-03-30T01:45:02.240Z,7.3
2018-03-30T01:46:04.672Z,7.4
2018-03-30T01:47:07.391Z,7.4
2018-03-30T01:48:10.095Z,7.4
2018-03-30T01:49:12.508Z,7.4
2018-03-30T01:50:14.946Z,7.4
2018-03-30T01:51:17.647Z,7.4
2018-03-30T01:52:20.078Z,7.4
2018-03-30T01:53:22.505Z,7.4
2018-03-30T01:54:25.243Z,7.4
2018-03-30T01:55:27.645Z,7.4
2018-03-30T01:56:30.079Z,7.5
2018-03-30T01:57:32.502Z,7.5
2018-03-30T01:58:34.935Z,7.5
2018-03-30T01:59:37.646Z,7.5
2018-03-30T02:00:40.627Z,7.5
2018-03-30T02:01:43.052Z,7.6
2018-03-30T02:02:45.765Z,7.6
2018-03-30T02:03:48.198Z,7.6
2018-03-30T02:04:50.624Z,7.6
2018-03-30T02:05:53.042Z,7.6
2018-03-30T02:06:55.466Z,7.6
2018-03-30T02:07:57.903Z,7.6
2018-03-30T02:09:00.327Z,7.6
2018-03-30T02:10:02.744Z,7.6
2018-03-30T02:11:05.165Z,7.6
2018-03-30T02:12:07.588Z,7.6
2018-03-30T02:13:10.025Z,7.7
2018-03-30T02:14:12.760Z,7.7
2018-03-30T02:15:15.176Z,7.7
2018-03-30T02:16:17.601Z,7.7
2018-03-30T02:17:20.035Z,7.7
2018-03-30T02:18:22.749Z,7.6
2018-03-30T02:19:25.748Z,7.7
2018-03-30T02:20:28.451Z,7.6
2018-03-30T02:21:30.875Z,7.6
2018-03-30T02:22:33.315Z,7.6
2018-03-30T02:23:35.744Z,7.6
2018-03-30T02:24:38.503Z,7.6
2018-03-30T02:25:41.168Z,7.6
2018-03-30T02:26:43.592Z,7.6
2018-03-30T02:27:46.023Z,7.6
2018-03-30T02:28:48.449Z,7.7
2018-03-30T02:29:50.877Z,7.7
2018-03-30T02:30:53.303Z,7.7
2018-03-30T02:31:56.028Z,7.7
2018-03-30T02:32:58.448Z,7.7
2018-03-30T02:34:01.187Z,7.7
2018-03-30T02:35:03.595Z,7.7
2018-03-30T02:36:06.024Z,7.7
2018-03-30T02:37:08.443Z,7.7
2018-03-30T02:38:10.869Z,7.8
2018-03-30T02:39:13.298Z,7.8
2018-03-30T02:40:15.732Z,7.8
2018-03-30T02:41:18.153Z,7.8
2018-03-30T02:42:20.588Z,7.9
2018-03-30T02:43:23.012Z,7.9
2018-03-30T02:44:25.736Z,7.9
2018-03-30T02:45:28.164Z,7.9
2018-03-30T02:46:30.597Z,7.9
2018-03-30T02:47:33.022Z,7.9
2018-03-30T02:48:35.479Z,7.9
2018-03-30T02:49:38.186Z,8
2018-03-30T02:50:40.621Z,8
2018-03-30T02:51:43.056Z,8
2018-03-30T02:52:46.090Z,8
2018-03-30T02:53:48.540Z,8
2018-03-30T02:54:50.943Z,8
2018-03-30T02:55:53.353Z,8
2018-03-30T02:56:55.780Z,7.9
2018-03-30T02:57:58.217Z,7.9
2018-03-30T02:59:00.638Z,7.9
2018-03-30T03:00:03.382Z,7.9
2018-03-30T03:01:05.800Z,7.9
2018-03-30T03:02:08.231Z,7.9
2018-03-30T03:03:10.947Z,7.9
2018-03-30T03:04:13.664Z,7.9
2018-03-30T03:05:16.389Z,7.9
2018-03-30T03:06:19.404Z,8
2018-03-30T03:07:21.826Z,8
2018-03-30T03:08:24.258Z,8
2018-03-30T03:09:26.676Z,8
2018-03-30T03:10:29.110Z,8
2018-03-30T03:11:31.530Z,8
2018-03-30T03:12:33.959Z,8
2018-03-30T03:13:36.670Z,8.1
2018-03-30T03:14:39.114Z,8
2018-03-30T03:15:41.532Z,8.1
2018-03-30T03:16:44.251Z,8.1
2018-03-30T03:17:46.680Z,8.1
2018-03-30T03:18:49.095Z,8.1
2018-03-30T03:19:51.807Z,8.1
2018-03-30T03:20:54.534Z,8.1
2018-03-30T03:21:56.957Z,8.2
2018-03-30T03:22:59.394Z,8.2
2018-03-30T03:24:01.813Z,8.2
2018-03-30T03:25:04.526Z,8.1
2018-03-30T03:26:06.951Z,8.1
2018-03-30T03:27:09.382Z,8.1
2018-03-30T03:28:11.806Z,8.1
2018-03-30T03:29:14.538Z,8.1
2018-03-30T03:30:16.964Z,8.1
2018-03-30T03:31:19.381Z,8.1
2018-03-30T03:32:21.817Z,8.1
2018-03-30T03:33:24.254Z,8.1
2018-03-30T03:34:26.673Z,8.1
2018-03-30T03:35:29.389Z,8.1
2018-03-30T03:36:31.818Z,8.1
2018-03-30T03:37:34.248Z,8
2018-03-30T03:38:36.690Z,8
2018-03-30T03:39:39.106Z,8
2018-03-30T03:40:41.523Z,8
2018-03-30T03:41:44.245Z,8
2018-03-30T03:42:46.667Z,8
2018-03-30T03:43:49.100Z,8
2018-03-30T03:44:51.526Z,8
2018-03-30T03:45:53.952Z,7.9
2018-03-30T03:46:56.378Z,7.9
2018-03-30T03:47:59.105Z,7.9
2018-03-30T03:49:01.528Z,7.9
2018-03-30T03:50:04.243Z,7.9
2018-03-30T03:51:06.972Z,7.9
2018-03-30T03:52:09.392Z,7.8
2018-03-30T03:53:11.834Z,7.8
2018-03-30T03:54:14.536Z,7.8
2018-03-30T03:55:16.950Z,7.8
2018-03-30T03:56:19.378Z,7.8
2018-03-30T03:57:21.811Z,7.7
2018-03-30T03:58:24.242Z,7.7
2018-03-30T03:59:26.674Z,7.7
2018-03-30T04:00:29.105Z,7.7
2018-03-30T04:01:31.838Z,7.7
2018-03-30T04:02:34.533Z,7.7
2018-03-30T04:03:36.969Z,7.6
2018-03-30T04:04:39.679Z,7.6
2018-03-30T04:05:42.122Z,7.7
2018-03-30T04:06:44.536Z,7.7
2018-03-30T04:07:46.964Z,7.6
2018-03-30T04:08:49.433Z,7.6
2018-03-30T04:09:51.830Z,7.6
2018-03-30T04:10:54.246Z,7.6
2018-03-30T04:11:56.681Z,7.6
2018-03-30T04:12:59.394Z,7.5
2018-03-30T04:14:01.827Z,7.5
2018-03-30T04:15:04.247Z,7.5
2018-03-30T04:16:06.695Z,7.5
2018-03-30T04:17:09.115Z,7.5
2018-03-30T04:18:11.541Z,7.5
2018-03-30T04:19:13.968Z,7.5
2018-03-30T04:20:16.395Z,7.4
2018-03-30T04:21:18.819Z,7.5
2018-03-30T04:22:21.249Z,7.5
2018-03-30T04:23:23.944Z,7.4
2018-03-30T04:24:26.662Z,7.4
2018-03-30T04:25:29.087Z,7.4
2018-03-30T04:26:31.809Z,7.4
2018-03-30T04:27:34.519Z,7.4
2018-03-30T04:28:37.007Z,7.4
2018-03-30T04:29:39.375Z,7.4
2018-03-30T04:30:41.796Z,7.4
2018-03-30T04:31:44.222Z,7.4
2018-03-30T04:32:46.945Z,7.4
2018-03-30T04:33:49.374Z,7.4
2018-03-30T04:34:51.803Z,7.5
2018-03-30T04:35:54.508Z,7.4
2018-03-30T04:36:56.931Z,7.4
2018-03-30T04:37:59.365Z,7.4
2018-03-30T04:39:01.789Z,7.4
2018-03-30T04:40:04.217Z,7.4
2018-03-30T04:41:06.650Z,7.4
2018-03-30T04:42:09.077Z,7.4
2018-03-30T04:43:11.500Z,7.4
2018-03-30T04:44:13.923Z,7.4
2018-03-30T04:45:16.339Z,7.4
2018-03-30T04:46:18.758Z,7.4
2018-03-30T04:47:21.190Z,7.4
2018-03-30T04:48:23.612Z,7.4
2018-03-30T04:49:26.033Z,7.4
2018-03-30T04:50:28.462Z,7.5
2018-03-30T04:51:30.889Z,7.5
2018-03-30T04:52:33.611Z,7.5
2018-03-30T04:53:36.320Z,7.5
2018-03-30T04:54:38.732Z,7.5
2018-03-30T04:55:41.170Z,7.6
2018-03-30T04:56:43.903Z,7.6
2018-03-30T04:57:46.329Z,7.6
2018-03-30T04:58:49.349Z,7.6
2018-03-30T04:59:51.783Z,7.6
2018-03-30T05:00:54.203Z,7.6
2018-03-30T05:01:56.630Z,7.6
2018-03-30T05:02:59.349Z,7.6
2018-03-30T05:04:02.353Z,7.6
2018-03-30T05:05:04.779Z,7.6
2018-03-30T05:06:07.210Z,7.6
2018-03-30T05:07:09.631Z,7.6
2018-03-30T05:08:12.064Z,7.6
2018-03-30T05:09:14.485Z,7.5
2018-03-30T05:10:17.187Z,7.5
2018-03-30T05:11:19.622Z,7.6
2018-03-30T05:12:22.048Z,7.5
2018-03-30T05:13:24.461Z,7.6
2018-03-30T05:14:26.886Z,7.6
2018-03-30T05:15:29.596Z,7.6
2018-03-30T05:16:32.068Z,7.6
2018-03-30T05:17:34.448Z,7.6
2018-03-30T05:18:36.865Z,7.6
2018-03-30T05:19:39.294Z,7.6
2018-03-30T05:20:41.736Z,7.6
2018-03-30T05:21:44.462Z,7.6
2018-03-30T05:22:47.173Z,7.6
2018-03-30T05:23:49.592Z,7.6
2018-03-30T05:24:52.024Z,7.6
2018-03-30T05:25:54.722Z,7.6
2018-03-30T05:26:57.152Z,7.7
2018-03-30T05:27:59.586Z,7.7
2018-03-30T05:29:02.015Z,7.7
2018-03-30T05:30:04.439Z,7.7
2018-03-30T05:31:07.154Z,7.7
2018-03-30T05:32:09.585Z,7.7
2018-03-30T05:33:12.027Z,7.8
2018-03-30T05:34:14.445Z,7.8
2018-03-30T05:35:16.863Z,7.8
2018-03-30T05:36:19.293Z,7.8
2018-03-30T05:37:21.710Z,7.8
2018-03-30T05:38:24.146Z,7.8
2018-03-30T05:39:26.558Z,7.9
2018-03-30T05:40:28.984Z,7.9
2018-03-30T05:41:31.981Z,7.9
2018-03-30T05:42:34.705Z,7.9
2018-03-30T05:43:37.125Z,7.9
2018-03-30T05:44:39.839Z,7.9
2018-03-30T05:45:42.549Z,7.9
2018-03-30T05:46:44.988Z,7.9
2018-03-30T05:47:47.410Z,7.9
2018-03-30T05:48:50.118Z,7.9
2018-03-30T05:49:52.581Z,7.9
2018-03-30T05:50:55.020Z,7.9
2018-03-30T05:51:57.728Z,7.9
2018-03-30T05:53:00.162Z,7.9
2018-03-30T05:54:02.575Z,7.9
2018-03-30T05:55:05.296Z,8
2018-03-30T05:56:08.304Z,8
2018-03-30T05:57:10.735Z,8
2018-03-30T05:58:13.452Z,8
2018-03-30T05:59:15.872Z,8
2018-03-30T06:00:18.299Z,8
2018-03-30T06:01:20.735Z,8.1
2018-03-30T06:02:23.190Z,8.1
2018-03-30T06:03:25.585Z,8.1
2018-03-30T06:04:28.297Z,8.1
2018-03-30T06:05:31.299Z,8.2
2018-03-30T06:06:33.762Z,8.2
2018-03-30T06:07:36.451Z,8.2
2018-03-30T06:08:38.873Z,8.2
2018-03-30T06:09:41.592Z,8.3
2018-03-30T06:10:44.014Z,8.2
2018-03-30T06:11:46.436Z,8.3
2018-03-30T06:12:48.871Z,8.3
2018-03-30T06:13:51.303Z,8.3
2018-03-30T06:14:54.086Z,8.3
2018-03-30T06:15:56.810Z,8.3
2018-03-30T06:16:59.228Z,8.3
2018-03-30T06:18:01.656Z,8.4
2018-03-30T06:19:04.413Z,8.4
2018-03-30T06:20:06.796Z,8.4
2018-03-30T06:21:09.223Z,8.4
2018-03-30T06:22:11.649Z,8.5
2018-03-30T06:23:14.079Z,8.5
2018-03-30T06:24:16.790Z,8.5
2018-03-30T06:25:19.220Z,8.5
2018-03-30T06:26:21.933Z,8.5
2018-03-30T06:27:24.369Z,8.5
2018-03-30T06:28:26.796Z,8.5
2018-03-30T06:29:29.229Z,8.5
2018-03-30T06:30:31.648Z,8.5
2018-03-30T06:31:34.085Z,8.5
2018-03-30T06:32:36.501Z,8.5
2018-03-30T06:33:38.932Z,8.5
2018-03-30T06:34:41.362Z,8.6
2018-03-30T06:35:43.779Z,8.6
2018-03-30T06:36:46.209Z,8.6
2018-03-30T06:37:48.636Z,8.6
2018-03-30T06:38:51.067Z,8.6
2018-03-30T06:39:53.487Z,8.6
2018-03-30T06:40:55.917Z,8.6
2018-03-30T06:41:58.347Z,8.5
2018-03-30T06:43:00.768Z,8.6
2018-03-30T06:44:03.211Z,8.6
2018-03-30T06:45:05.922Z,8.5
2018-03-30T06:46:08.347Z,8.6
2018-03-30T06:47:11.086Z,8.6
2018-03-30T06:48:13.797Z,8.6
2018-03-30T06:49:16.504Z,8.6
2018-03-30T06:50:19.226Z,8.7
2018-03-30T06:51:21.638Z,8.7
2018-03-30T06:52:24.065Z,8.7
2018-03-30T06:53:26.791Z,8.7
2018-03-30T06:54:29.216Z,8.7
2018-03-30T06:55:31.643Z,8.7
2018-03-30T06:56:34.079Z,8.8
2018-03-30T06:57:36.496Z,8.8
2018-03-30T06:58:38.923Z,8.8
2018-03-30T06:59:41.349Z,8.8
2018-03-30T07:00:43.775Z,8.9
2018-03-30T07:01:46.199Z,8.9
2018-03-30T07:02:48.602Z,8.9
2018-03-30T07:03:50.981Z,9
2018-03-30T07:04:53.385Z,9
2018-03-30T07:05:55.724Z,9
2018-03-30T07:06:58.458Z,9.1
2018-03-30T07:08:00.842Z,9.1
2018-03-30T07:09:03.206Z,9.1
2018-03-30T07:10:05.594Z,9.2
2018-03-30T07:11:07.971Z,9.2
2018-03-30T07:12:10.355Z,9.3
2018-03-30T07:13:12.732Z,9.3
2018-03-30T07:14:15.104Z,9.4
2018-03-30T07:15:17.759Z,9.5
2018-03-30T07:16:20.158Z,9.5
2018-03-30T07:17:22.536Z,9.6
2018-03-30T07:18:24.913Z,9.6
2018-03-30T07:19:27.296Z,9.6
2018-03-30T07:20:29.682Z,9.7
2018-03-30T07:21:32.380Z,9.7
2018-03-30T07:22:35.421Z,9.7
2018-03-30T07:23:38.086Z,9.7
2018-03-30T07:24:40.449Z,9.7
2018-03-30T07:25:42.824Z,9.7
2018-03-30T07:26:45.210Z,9.7
2018-03-30T07:27:47.863Z,9.8
2018-03-30T07:28:50.242Z,9.8
2018-03-30T07:29:52.626Z,9.8
2018-03-30T07:30:55.002Z,9.9
2018-03-30T07:31:57.386Z,9.9
2018-03-30T07:32:59.764Z,10
2018-03-30T07:34:02.138Z,10
2018-03-30T07:35:04.517Z,10.1
2018-03-30T07:36:07.178Z,10.2
2018-03-30T07:37:09.568Z,10.2
2018-03-30T07:38:11.942Z,10.3
2018-03-30T07:39:14.311Z,10.3
2018-03-30T07:40:16.688Z,10.3
2018-03-30T07:41:19.082Z,10.3
2018-03-30T07:42:21.743Z,10.3
2018-03-30T07:43:24.123Z,10.2
2018-03-30T07:44:26.507Z,10.2
2018-03-30T07:45:28.883Z,10.3
2018-03-30T07:46:31.258Z,10.3
2018-03-30T07:47:33.649Z,10.4
2018-03-30T07:48:36.302Z,10.4
2018-03-30T07:49:38.678Z,10.5
2018-03-30T07:50:41.074Z,10.5
2018-03-30T07:51:44.301Z,10.5
2018-03-30T07:52:47.236Z,10.5
2018-03-30T07:53:49.607Z,10.6
2018-03-30T07:54:52.269Z,10.5
2018-03-30T07:55:54.643Z,10.6
2018-03-30T07:56:57.025Z,10.6
2018-03-30T07:57:59.674Z,10.7
2018-03-30T07:59:02.050Z,10.7
2018-03-30T08:00:04.726Z,10.8
2018-03-30T08:01:07.097Z,10.8
2018-03-30T08:02:09.475Z,10.8
2018-03-30T08:03:11.854Z,10.8
2018-03-30T08:04:14.239Z,10.8
2018-03-30T08:05:16.623Z,10.8
2018-03-30T08:06:18.999Z,10.8
2018-03-30T08:07:21.357Z,10.8
2018-03-30T08:08:23.751Z,10.8
2018-03-30T08:09:26.114Z,10.9
2018-03-30T08:10:28.484Z,11
2018-03-30T08:11:30.867Z,11.1
2018-03-30T08:12:33.507Z,11.1
2018-03-30T08:13:36.168Z,11.1
2018-03-30T08:14:38.558Z,11.2
2018-03-30T08:15:40.937Z,11.3
2018-03-30T08:16:43.314Z,11.3
2018-03-30T08:17:45.686Z,11.3
2018-03-30T08:18:48.065Z,11.3
2018-03-30T08:19:50.457Z,11.3
2018-03-30T08:20:52.831Z,11.3
2018-03-30T08:21:55.197Z,11.4
2018-03-30T08:22:57.584Z,11.4
2018-03-30T08:23:59.951Z,11.5
2018-03-30T08:25:02.645Z,11.6
2018-03-30T08:26:05.296Z,11.7
2018-03-30T08:27:07.674Z,11.8
2018-03-30T08:28:10.050Z,11.8
2018-03-30T08:29:12.424Z,12
2018-03-30T08:30:14.809Z,12
2018-03-30T08:31:17.189Z,12.2
2018-03-30T08:32:19.566Z,12.3
2018-03-30T08:33:21.950Z,12.4
2018-03-30T08:34:24.319Z,12.5
2018-03-30T08:35:26.694Z,12.6
2018-03-30T08:36:29.130Z,12.7
2018-03-30T08:37:31.794Z,12.9
2018-03-30T08:38:34.175Z,13
2018-03-30T08:39:36.557Z,13.1
2018-03-30T08:40:38.930Z,13.2
2018-03-30T08:41:41.318Z,13.4
2018-03-30T08:42:43.689Z,13.5
2018-03-30T08:43:46.065Z,13.7
2018-03-30T08:44:48.450Z,13.8
2018-03-30T08:45:50.839Z,13.9
2018-03-30T08:46:53.218Z,14.1
2018-03-30T08:47:55.611Z,14.2
2018-03-30T08:48:57.999Z,14.3
2018-03-30T08:50:00.376Z,14.4
2018-03-30T08:51:02.755Z,14.5
2018-03-30T08:52:05.136Z,14.7
2018-03-30T08:53:07.528Z,14.8
2018-03-30T08:54:09.913Z,14.8
2018-03-30T08:55:12.306Z,14.9
2018-03-30T08:56:14.695Z,14.9
2018-03-30T08:57:17.343Z,15
2018-03-30T08:58:19.732Z,15.1
2018-03-30T08:59:22.427Z,15.1
2018-03-30T09:00:24.806Z,15.2
2018-03-30T09:01:27.183Z,15.2
2018-03-30T09:02:29.561Z,15.3
2018-03-30T09:03:31.950Z,15.4
2018-03-30T09:04:34.334Z,15.4
2018-03-30T09:05:36.713Z,15.5
2018-03-30T09:06:39.109Z,15.6
2018-03-30T09:07:41.760Z,15.6
2018-03-30T09:08:44.144Z,15.7
2018-03-30T09:09:46.544Z,15.8
2018-03-30T09:10:48.920Z,15.8
2018-03-30T09:11:51.291Z,15.9
2018-03-30T09:12:53.683Z,16
2018-03-30T09:13:56.453Z,16
2018-03-30T09:14:58.800Z,16
2018-03-30T09:16:01.189Z,16
2018-03-30T09:17:03.566Z,16.1
2018-03-30T09:18:05.962Z,16.1
2018-03-30T09:19:08.340Z,16.1
2018-03-30T09:20:10.730Z,16.2
2018-03-30T09:21:13.116Z,16.2
2018-03-30T09:22:15.506Z,16.2
2018-03-30T09:23:17.898Z,16.2
2018-03-30T09:24:20.568Z,16.2
2018-03-30T09:25:22.953Z,16.2
2018-03-30T09:26:25.339Z,16.3
2018-03-30T09:27:27.729Z,16.3
2018-03-30T09:28:30.113Z,16.3
2018-03-30T09:29:32.516Z,16.4
2018-03-30T09:30:34.875Z,16.4
2018-03-30T09:31:37.264Z,16.5
2018-03-30T09:32:39.657Z,16.5
2018-03-30T09:33:42.053Z,16.6
2018-03-30T09:34:44.488Z,16.6
2018-03-30T09:35:47.160Z,16.6
2018-03-30T09:36:49.539Z,16.6
2018-03-30T09:37:51.939Z,16.6
2018-03-30T09:38:54.324Z,16.7
2018-03-30T09:39:56.704Z,16.8
2018-03-30T09:40:59.097Z,16.8
2018-03-30T09:42:01.482Z,16.9
2018-03-30T09:43:04.133Z,16.9
2018-03-30T09:44:06.819Z,16.9
2018-03-30T09:45:09.197Z,17
2018-03-30T09:46:11.580Z,17
2018-03-30T09:47:13.978Z,17.1
2018-03-30T09:48:16.363Z,17.1
2018-03-30T09:49:18.741Z,17.1
2018-03-30T09:50:21.128Z,17.2
2018-03-30T09:51:23.505Z,17.3
2018-03-30T09:52:25.894Z,17.3
2018-03-30T09:53:28.282Z,17.4
2018-03-30T09:54:30.941Z,17.5
2018-03-30T09:55:33.606Z,17.6
2018-03-30T09:56:35.999Z,17.7
2018-03-30T09:57:38.383Z,17.7
2018-03-30T09:58:40.769Z,17.7
2018-03-30T09:59:43.156Z,17.8
2018-03-30T10:00:45.534Z,17.8
2018-03-30T10:01:47.932Z,17.8
2018-03-30T10:02:50.318Z,17.9
2018-03-30T10:03:52.700Z,17.9
2018-03-30T10:04:55.081Z,17.9
2018-03-30T10:05:57.472Z,17.9
2018-03-30T10:07:00.143Z,17.9
2018-03-30T10:08:02.822Z,17.9
2018-03-30T10:09:05.487Z,17.9
2018-03-30T10:10:07.871Z,17.9
2018-03-30T10:11:10.265Z,17.9
2018-03-30T10:12:12.933Z,17.8
2018-03-30T10:13:15.319Z,17.8
2018-03-30T10:14:17.704Z,17.8
2018-03-30T10:15:20.084Z,17.7
2018-03-30T10:16:22.473Z,17.7
2018-03-30T10:17:25.147Z,17.6
2018-03-30T10:18:27.800Z,17.6
2018-03-30T10:19:30.187Z,17.5
2018-03-30T10:20:32.858Z,17.5
2018-03-30T10:21:35.254Z,17.4
2018-03-30T10:22:37.618Z,17.4
2018-03-30T10:23:39.994Z,17.3
2018-03-30T10:24:42.373Z,17.3
2018-03-30T10:25:44.753Z,17.3
2018-03-30T10:26:47.136Z,17.4
2018-03-30T10:27:49.821Z,17.5
2018-03-30T10:28:52.199Z,17.5
2018-03-30T10:29:54.591Z,17.5
2018-03-30T10:30:57.260Z,17.5
2018-03-30T10:31:59.645Z,17.6
2018-03-30T10:33:02.031Z,17.6
2018-03-30T10:34:04.701Z,17.6
2018-03-30T10:35:07.077Z,17.6
2018-03-30T10:36:09.752Z,17.6
2018-03-30T10:37:12.133Z,17.6
2018-03-30T10:38:14.522Z,17.6
2018-03-30T10:39:16.910Z,17.6
2018-03-30T10:40:19.291Z,17.6
2018-03-30T10:41:21.675Z,17.6
2018-03-30T10:42:24.066Z,17.6
2018-03-30T10:43:26.722Z,17.6
2018-03-30T10:44:29.118Z,17.6
2018-03-30T10:45:31.504Z,17.7
2018-03-30T10:46:33.890Z,17.7
2018-03-30T10:47:36.280Z,17.8
2018-03-30T10:48:38.657Z,17.8
2018-03-30T10:49:41.035Z,17.8
2018-03-30T10:50:43.422Z,17.8
2018-03-30T10:51:45.818Z,17.8
2018-03-30T10:52:48.203Z,17.8
2018-03-30T10:53:50.571Z,17.8
2018-03-30T10:54:53.249Z,17.8
2018-03-30T10:55:55.632Z,17.8
2018-03-30T10:56:58.027Z,17.8
2018-03-30T10:58:00.411Z,17.8
2018-03-30T10:59:03.069Z,17.8
2018-03-30T11:00:05.743Z,17.8
2018-03-30T11:01:08.417Z,17.7
2018-03-30T11:02:10.795Z,17.7
2018-03-30T11:03:13.178Z,17.7
2018-03-30T11:04:15.562Z,17.7
2018-03-30T11:05:17.976Z,17.7
2018-03-30T11:06:20.676Z,17.7
2018-03-30T11:07:23.060Z,17.8
2018-03-30T11:08:25.431Z,17.8
2018-03-30T11:09:27.818Z,17.8
2018-03-30T11:10:30.483Z,17.8
2018-03-30T11:11:32.908Z,17.9
2018-03-30T11:12:35.250Z,17.9
2018-03-30T11:13:37.917Z,17.9
2018-03-30T11:14:40.631Z,17.9
2018-03-30T11:15:43.317Z,18
2018-03-30T11:16:45.701Z,18
2018-03-30T11:17:48.358Z,18
2018-03-30T11:18:50.740Z,18.1
2018-03-30T11:19:53.129Z,18.1
2018-03-30T11:20:55.521Z,18.1
2018-03-30T11:21:57.908Z,18.1
2018-03-30T11:23:00.295Z,18.1
2018-03-30T11:24:02.680Z,18.1
2018-03-30T11:25:05.337Z,18.1
2018-03-30T11:26:07.720Z,18.2
2018-03-30T11:27:10.113Z,18.2
2018-03-30T11:28:12.494Z,18.2
2018-03-30T11:29:14.885Z,18.2
2018-03-30T11:30:17.268Z,18.3
2018-03-30T11:31:19.658Z,18.3
2018-03-30T11:32:22.052Z,18.3
2018-03-30T11:33:24.435Z,18.3
2018-03-30T11:34:26.822Z,18.3
2018-03-30T11:35:29.488Z,18.2
2018-03-30T11:36:31.871Z,18.2
2018-03-30T11:37:34.828Z,18.2
2018-03-30T11:38:37.212Z,18.1
2018-03-30T11:39:39.631Z,18.1
2018-03-30T11:40:42.348Z,18
2018-03-30T11:41:44.791Z,17.9
2018-03-30T11:42:47.867Z,17.9
2018-03-30T11:43:50.304Z,17.8
2018-03-30T11:44:52.747Z,17.8
2018-03-30T11:45:55.196Z,17.7
2018-03-30T11:46:57.631Z,17.6
2018-03-30T11:48:00.090Z,17.6
2018-03-30T11:49:02.814Z,17.6
2018-03-30T11:50:05.566Z,17.5
2018-03-30T11:51:08.334Z,17.4
2018-03-30T11:52:10.876Z,17.4
2018-03-30T11:53:13.319Z,17.3
2018-03-30T11:54:15.754Z,17.2
2018-03-30T11:55:18.327Z,17.2
2018-03-30T11:56:21.379Z,17.1
2018-03-30T11:57:23.751Z,17
2018-03-30T11:58:26.148Z,17
2018-03-30T11:59:28.710Z,16.9
2018-03-30T12:00:31.381Z,16.9
2018-03-30T12:01:33.778Z,16.8
2018-03-30T12:02:36.169Z,16.8
2018-03-30T12:03:38.555Z,16.8
2018-03-30T12:04:41.222Z,16.8
2018-03-30T12:05:43.603Z,16.7
2018-03-30T12:06:45.987Z,16.7
2018-03-30T12:07:48.653Z,16.7
2018-03-30T12:08:51.036Z,16.7
2018-03-30T12:09:53.408Z,16.6
2018-03-30T12:10:55.794Z,16.6
2018-03-30T12:11:58.185Z,16.6
2018-03-30T12:13:00.850Z,16.6
2018-03-30T12:14:03.241Z,16.6
2018-03-30T12:15:05.626Z,16.6
2018-03-30T12:16:08.006Z,16.7
2018-03-30T12:17:10.403Z,16.7
2018-03-30T12:18:12.791Z,16.7
2018-03-30T12:19:15.164Z,16.8
2018-03-30T12:20:17.547Z,16.8
2018-03-30T12:21:19.939Z,16.9
2018-03-30T12:22:22.315Z,17
2018-03-30T12:23:24.694Z,17
2018-03-30T12:24:27.093Z,17.1
2018-03-30T12:25:29.474Z,17.1
2018-03-30T12:26:31.856Z,17.1
2018-03-30T12:27:34.247Z,17.2
2018-03-30T12:28:36.625Z,17.2
2018-03-30T12:29:39.013Z,17.3
2018-03-30T12:30:41.683Z,17.3
2018-03-30T12:31:44.059Z,17.4
2018-03-30T12:32:46.439Z,17.6
2018-03-30T12:33:48.830Z,17.7
2018-03-30T12:34:51.519Z,17.8
2018-03-30T12:35:54.476Z,17.9
2018-03-30T12:36:56.853Z,18
2018-03-30T12:37:59.241Z,18.2
2018-03-30T12:39:01.634Z,18.3
2018-03-30T12:40:04.023Z,18.5
2018-03-30T12:41:06.398Z,18.6
2018-03-30T12:42:08.791Z,18.8
2018-03-30T12:43:11.465Z,18.9
2018-03-30T12:44:14.130Z,19
2018-03-30T12:45:16.525Z,19.1
2018-03-30T12:46:18.928Z,19.2
2018-03-30T12:47:21.938Z,19.3
2018-03-30T12:48:24.337Z,19.3
2018-03-30T12:49:26.725Z,19.5
2018-03-30T12:50:29.108Z,19.6
2018-03-30T12:51:31.486Z,19.7
2018-03-30T12:52:33.873Z,19.8
2018-03-30T12:53:36.534Z,19.9
2018-03-30T12:54:39.236Z,20
2018-03-30T12:55:41.920Z,20.1
2018-03-30T12:56:44.318Z,20.2
2018-03-30T12:57:46.710Z,20.2
2018-03-30T12:58:49.108Z,20.3
2018-03-30T12:59:52.081Z,20.3
2018-03-30T13:00:54.520Z,20.3
2018-03-30T13:01:56.904Z,20.4
2018-03-30T13:02:59.610Z,20.4
2018-03-30T13:04:02.603Z,20.5
2018-03-30T13:05:05.004Z,20.5
2018-03-30T13:06:07.428Z,20.4
2018-03-30T13:07:10.169Z,20.4
2018-03-30T13:08:12.560Z,20.4
2018-03-30T13:09:15.013Z,20.4
2018-03-30T13:10:17.401Z,20.4
2018-03-30T13:11:19.801Z,20.4
2018-03-30T13:12:22.501Z,20.4
2018-03-30T13:13:24.895Z,20.5
2018-03-30T13:14:27.314Z,20.5
2018-03-30T13:15:29.689Z,20.6
2018-03-30T13:16:32.077Z,20.6
2018-03-30T13:17:34.462Z,20.6
2018-03-30T13:18:36.849Z,20.6
2018-03-30T13:19:39.525Z,20.7
2018-03-30T13:20:41.914Z,20.8
2018-03-30T13:21:44.316Z,20.8
2018-03-30T13:22:47.012Z,20.8
2018-03-30T13:23:49.410Z,20.9
2018-03-30T13:24:51.770Z,21
2018-03-30T13:25:54.161Z,21.1
2018-03-30T13:26:56.559Z,21.1
2018-03-30T13:27:58.946Z,21.2
2018-03-30T13:29:01.620Z,21.3
2018-03-30T13:30:04.293Z,21.3
2018-03-30T13:31:06.683Z,21.3
2018-03-30T13:32:09.081Z,21.3
2018-03-30T13:33:11.738Z,21.3
2018-03-30T13:34:14.142Z,21.3
2018-03-30T13:35:16.520Z,21.4
2018-03-30T13:36:18.919Z,21.4
2018-03-30T13:37:21.305Z,21.5
2018-03-30T13:38:23.697Z,21.5
2018-03-30T13:39:26.086Z,21.5
2018-03-30T13:40:28.469Z,21.6
2018-03-30T13:41:31.145Z,21.6
2018-03-30T13:42:33.531Z,21.6
2018-03-30T13:43:35.917Z,21.6
2018-03-30T13:44:38.311Z,21.6
2018-03-30T13:45:40.712Z,21.6
2018-03-30T13:46:43.104Z,21.6
2018-03-30T13:47:45.780Z,21.6
2018-03-30T13:48:48.172Z,21.7
2018-03-30T13:49:50.843Z,21.7
2018-03-30T13:50:53.525Z,21.8
2018-03-30T13:51:55.911Z,21.9
2018-03-30T13:52:58.302Z,22
2018-03-30T13:54:00.692Z,22
2018-03-30T13:55:03.099Z,22
2018-03-30T13:56:05.488Z,22
2018-03-30T13:57:08.197Z,22
2018-03-30T13:58:10.556Z,22
2018-03-30T13:59:12.946Z,21.9
2018-03-30T14:00:15.337Z,21.9
2018-03-30T14:01:18.287Z,21.9
2018-03-30T14:02:20.673Z,21.9
2018-03-30T14:03:23.073Z,22
2018-03-30T14:04:25.467Z,22
2018-03-30T14:05:27.856Z,22.1
2018-03-30T14:06:30.246Z,22.2
2018-03-30T14:07:32.641Z,22.2
2018-03-30T14:08:35.034Z,22.3
2018-03-30T14:09:37.440Z,22.4
2018-03-30T14:10:39.830Z,22.5
2018-03-30T14:11:42.221Z,22.7